Malvern, PA

04:41 PM EDT die 27o September, anno 2016 (GMT -0400)
Chester Valley Knoll | | Change Station

Elev 364 ft 40.05 °N, 75.54 °W | Updated 28 seconds ago

Clear
Serena
74.5 °F
Feels Like 77 °F
N
0.0
Ventus Variabilis Ventus from Magis Zephyrus quam Auster
Gusts 0.0 mph

Hodie
High -- | Low -- °F
--% Chance of Precip.
Yesterday
High -- | Low -- °F
Precip. -- in
Pressio 29.90 in
Visibilitas 10.0 milia passuum
Clouds Serena
Index Caloris 77 °F
Frigus in quo Ros apparet 48 °F
Umor 39%
Rainfall 0.00 in
Snow Depth Not available.
6:55 AM 6:50 PM
Waning Crescent, 9% visible
METAR KPTW 271954Z AUTO 00000KT 10SM CLR 23/08 A2991 RMK AO2 SLP123 T02330083
Pressio 29.90 in
Visibilitas 10.0 milia passuum
Clouds Serena
Index Caloris 77 °F
Frigus in quo Ros apparet 48 °F
Umor 39%
Rainfall 0.00 in
Snow Depth Not available.
6:55 AM 6:50 PM
Waning Crescent, 9% visible
METAR KPTW 271954Z AUTO 00000KT 10SM CLR 23/08 A2991 RMK AO2 SLP123 T02330083

10-Day Weather Forecast

Almanac

Astronomy

Sep. 27, 2016 Rise Set
Actual Time
Civil Twilight
Nautical Twilight
Astronomical Twilight
Moon
Length Of Visible Light
Length of Day
Tomorrow will be .
, % of the Moon is Illuminated

Today's Extremes

State Highs State Lows

Community

WunderPhotos

Upload Photos

1,942,168 photos uploaded!

WunderBlog® & News

Nearby

Air Quality

  Air Quality AQ Index Pollutant
Not available.

Snow Depth

Station Depth Elevation

Earthquake Activity

City Distance Mag. Time & Date
Minimum magnitude displayed is 2.5.

Coastal Water Temperatures

Locus Calor

Stations

Nearby Weather Stations

Station Location Temp Frigus Venti Frigus in quo Ros apparet Umor Ventus Precip. Elev Renovata Type
                   

Watches & Warnings

There are currently no watches in effect.